Time;durP1;ratioP1;P1;durP2;ratioP2;P2;SDS_P1;SDS_P2;PMS_P1;PMS_P2;Temp;Humidity;BMP_temperature;BMP_pressure;BME280_temperature;BME280_humidity;BME280_pressure;Samples;Min_cycle;Max_cycle;Signal;HPM_P1;HPM_P2
2022/06/13 00:03:53;;;;;;;;;;;;;;;-145.66;100.00;59599.19;10503477;28;19926;-64
2022/06/13 00:08:55;;;;;;;;;;;;;;;-145.66;100.00;59599.19;10503329;28;19928;-64
2022/06/13 00:13:57;;;;;;;;;;;;;;;-145.66;100.00;59599.19;10502605;28;20381;-64
2022/06/13 00:18:59;;;;;;;;;;;;;;;-145.66;100.00;59599.19;10501986;28;19920;-64
2022/06/13 00:24:03;;;;;;;;;;;;;;;-145.66;100.00;59599.19;10500535;28;19920;-64
2022/06/13 00:29:05;;;;;;;;;;;;;;;-145.66;100.00;59599.19;10461490;28;19920;-64
2022/06/13 00:34:08;;;;;;;;;;;;;;;-145.66;100.00;59599.19;10461446;28;19929;-64
2022/06/13 00:39:10;;;;;;;;;;;;;;;-145.66;100.00;59599.19;10502449;28;19920;-64
2022/06/13 00:44:12;;;;;;;;;;;;;;;-145.66;100.00;59599.19;10501768;28;19926;-64
2022/06/13 00:49:20;;;;;;;;;;;;;;;-145.66;100.00;59599.19;10501243;28;19924;-64
2022/06/13 00:54:22;;;;;;;;;;;;;;;-145.66;100.00;59599.19;10500470;28;19927;-64
2022/06/13 00:59:24;;;;;;;;;;;;;;;-145.66;100.00;59599.19;10500536;28;19928;-64
2022/06/13 01:04:26;;;;;;;;;;;;;;;-145.66;100.00;59599.19;10499659;28;19928;-64
2022/06/13 01:15:06;;;;;;;;;;;;;;;-145.66;100.00;59599.19;10446160;28;20378;-64
2022/06/13 01:20:12;;;;;;;;;;;;;;;-145.66;100.00;59599.19;10498404;28;20290;-64
2022/06/13 01:25:18;;;;;;;;;;;;;;;-145.66;100.00;59599.19;10482703;28;19920;-64
2022/06/13 01:30:27;;;;;;;;;;;;;;;-145.66;100.00;59599.19;10500297;28;19928;-64
2022/06/13 01:35:48;;;;;;;;;;;;;;;-145.66;100.00;59599.19;10499176;28;19920;-64
2022/06/13 01:40:56;;;;;;;;;;;;;;;-145.66;100.00;59599.19;10499117;28;19920;-64
2022/06/13 01:45:58;;;;;;;;;;;;;;;-145.66;100.00;59599.19;10498885;28;19920;-64
2022/06/13 01:51:08;;;;;;;;;;;;;;;-145.66;100.00;59599.19;10499665;28;19920;-64
2022/06/13 01:56:11;;;;;;;;;;;;;;;-145.66;100.00;59599.19;10499053;28;19927;-64
2022/06/13 02:01:15;;;;;;;;;;;;;;;-145.66;100.00;59599.19;10498320;28;19943;-64
2022/06/13 02:06:23;;;;;;;;;;;;;;;-145.66;100.00;59599.19;10497435;28;19946;-64
2022/06/13 02:11:26;;;;;;;;;;;;;;;-145.66;100.00;59599.19;10497910;28;19926;-64
2022/06/13 02:16:31;;;;;;;;;;;;;;;-145.66;100.00;59599.19;10497000;28;20310;-64
2022/06/13 02:21:36;;;;;;;;;;;;;;;-145.66;100.00;59599.19;10480118;28;20275;-64
2022/06/13 02:26:38;;;;;;;;;;;;;;;-145.66;100.00;59599.19;10497225;28;20022;-64
2022/06/13 02:31:43;;;;;;;;;;;;;;;-145.66;100.00;59599.19;10498607;28;19920;-64
2022/06/13 02:36:48;;;;;;;;;;;;;;;-145.66;100.00;59599.19;10480615;28;19920;-64
2022/06/13 02:41:55;;;;;;;;;;;;;;;-145.66;100.00;59599.19;10497562;28;20413;-64
2022/06/13 02:46:59;;;;;;;;;;;;;;;-145.66;100.00;59599.19;10498136;28;20084;-64
2022/06/13 02:52:13;;;;;;;;;;;;;;;-145.66;100.00;59599.19;10497409;28;19920;-64
2022/06/13 02:57:35;;;;;;;;;;;;;;;-145.66;100.00;59599.19;10499224;28;19921;-64
2022/06/13 03:02:40;;;;;;;;;;;;;;;-145.66;100.00;59599.19;10505206;28;19921;-64
2022/06/13 03:07:52;;;;;;;;;;;;;;;-145.66;100.00;59599.19;10505297;28;19920;-64
2022/06/13 03:13:08;;;;;;;;;;;;;;;-145.66;100.00;59599.19;10505797;28;19920;-64
2022/06/13 03:18:13;;;;;;;;;;;;;;;-145.66;100.00;59599.19;10503697;28;19927;-64
2022/06/13 03:23:45;;;;;;;;;;;;;;;-145.66;100.00;59599.19;10503397;28;19924;-64
2022/06/13 03:28:49;;;;;;;;;;;;;;;-145.66;100.00;59599.19;10455112;28;19921;-64
2022/06/13 03:33:52;;;;;;;;;;;;;;;-145.66;100.00;59599.19;10448047;28;19924;-64
2022/06/13 03:38:58;;;;;;;;;;;;;;;-145.66;100.00;59599.19;10503552;28;19920;-64
2022/06/13 03:44:20;;;;;;;;;;;;;;;-145.66;100.00;59599.19;10502867;28;20375;-64
2022/06/13 03:49:22;;;;;;;;;;;;;;;-145.66;100.00;59599.19;10503590;28;19920;-64
2022/06/13 03:54:34;;;;;;;;;;;;;;;-145.66;100.00;59599.19;10503191;28;20363;-64
2022/06/13 03:59:44;;;;;;;;;;;;;;;-145.66;100.00;59599.19;10503242;28;19920;-64
2022/06/13 04:04:47;;;;;;;;;;;;;;;-145.66;100.00;59599.19;10502327;28;19921;-64
2022/06/13 04:09:51;;;;;;;;;;;;;;;-145.66;100.00;59599.19;10502732;28;19927;-65
2022/06/13 04:15:20;;;;;;;;;;;;;;;-145.66;100.00;59599.19;10502069;28;19921;-64
2022/06/13 04:20:40;;;;;;;;;;;;;;;-145.66;100.00;59599.19;10471862;28;19920;-64
2022/06/13 04:25:49;;;;;;;;;;;;;;;-145.66;100.00;59599.19;10501989;28;19920;-64
2022/06/13 04:30:51;;;;;;;;;;;;;;;-145.66;100.00;59599.19;10502913;28;19920;-65
2022/06/13 04:35:54;;;;;;;;;;;;;;;-145.66;100.00;59599.19;10501143;28;19950;-65
2022/06/13 04:41:00;;;;;;;;;;;;;;;-145.66;100.00;59599.19;10501017;28;19927;-65
2022/06/13 04:46:10;;;;;;;;;;;;;;;-145.66;100.00;59599.19;10501552;28;19927;-65
2022/06/13 04:51:14;;;;;;;;;;;;;;;-145.66;100.00;59599.19;10500788;28;19932;-64
2022/06/13 04:56:17;;;;;;;;;;;;;;;-145.66;100.00;59599.19;10483809;28;19926;-65
2022/06/13 05:01:22;;;;;;;;;;;;;;;-145.66;100.00;59599.19;10500474;28;19921;-65
2022/06/13 05:06:24;;;;;;;;;;;;;;;-145.66;100.00;59599.19;10499460;28;19966;-65
2022/06/13 05:11:27;;;;;;;;;;;;;;;-145.66;100.00;59599.19;10501140;28;20011;-65
2022/06/13 05:16:43;;;;;;;;;;;;;;;-145.66;100.00;59599.19;10499599;28;19926;-65
2022/06/13 05:22:08;;;;;;;;;;;;;;;-145.66;100.00;59599.19;10498698;28;19920;-65
2022/06/13 05:27:11;;;;;;;;;;;;;;;-145.66;100.00;59599.19;10500459;28;19927;-65
2022/06/13 05:32:13;;;;;;;;;;;;;;;-145.66;100.00;59599.19;10499543;28;20295;-65
2022/06/13 05:37:15;;;;;;;;;;;;;;;-145.66;100.00;59599.19;10481505;28;20294;-65
2022/06/13 05:42:17;;;;;;;;;;;;;;;-145.66;100.00;59599.19;10498608;28;19926;-65
2022/06/13 05:47:20;;;;;;;;;;;;;;;-145.66;100.00;59599.19;10499013;28;20295;-65
2022/06/13 05:52:22;;;;;;;;;;;;;;;-145.66;100.00;59599.19;10499608;28;19927;-65
2022/06/13 05:57:24;;;;;;;;;;;;;;;-145.66;100.00;59599.19;10498511;28;19920;-65
2022/06/13 06:02:26;;;;;;;;;;;;;;;-145.66;100.00;59599.19;10497287;28;19928;-66
2022/06/13 06:07:29;;;;;;;;;;;;;;;-145.66;100.00;59599.19;10498991;28;19924;-65
2022/06/13 06:12:31;;;;;;;;;;;;;;;-145.66;100.00;59599.19;10499079;28;19920;-65
2022/06/13 06:17:33;;;;;;;;;;;;;;;-145.66;100.00;59599.19;10482363;28;19920;-65
2022/06/13 06:22:35;;;;;;;;;;;;;;;-145.66;100.00;59599.19;10498629;28;19981;-65
2022/06/13 06:27:38;;;;;;;;;;;;;;;-145.66;100.00;59599.19;10497506;28;19951;-65
2022/06/13 06:32:40;;;;;;;;;;;;;;;-145.66;100.00;59599.19;10497862;28;20364;-65
2022/06/13 06:37:46;;;;;;;;;;;;;;;-145.66;100.00;59599.19;10497678;28;19920;-65
2022/06/13 06:42:48;;;;;;;;;;;;;;;-145.66;100.00;59599.19;10498249;28;19925;-65
2022/06/13 06:47:56;;;;;;;;;;;;;;;-145.66;100.00;59599.19;10482495;28;19927;-65
2022/06/13 06:52:58;;;;;;;;;;;;;;;-145.66;100.00;59599.19;10497037;28;19932;-65
2022/06/13 07:03:22;;;;;;;;;;;;;;;-145.66;100.00;59599.19;10497225;28;20363;-65
2022/06/13 07:08:24;;;;;;;;;;;;;;;-145.66;100.00;59599.19;10496520;28;19920;-65
2022/06/13 07:13:26;;;;;;;;;;;;;;;-145.66;100.00;59599.19;10492369;28;19920;-65
2022/06/13 07:18:28;;;;;;;;;;;;;;;-145.66;100.00;59599.19;10497782;28;19924;-65
2022/06/13 07:23:31;;;;;;;;;;;;;;;-145.66;100.00;59599.19;10496618;28;19920;-65
2022/06/13 07:28:33;;;;;;;;;;;;;;;-145.66;100.00;59599.19;10496460;28;20398;-65
2022/06/13 07:33:35;;;;;;;;;;;;;;;-145.66;100.00;59599.19;10496911;28;20286;-65
2022/06/13 07:38:37;;;;;;;;;;;;;;;-145.66;100.00;59599.19;10496730;28;20385;-65
2022/06/13 07:43:40;;;;;;;;;;;;;;;-145.66;100.00;59599.19;10492774;28;20375;-65
2022/06/13 07:48:42;;;;;;;;;;;;;;;-145.66;100.00;59599.19;10496099;28;19932;-65
2022/06/13 07:53:44;;;;;;;;;;;;;;;-145.66;100.00;59599.19;10497273;28;19931;-61
2022/06/13 07:58:58;;;;;;;;;;;;;;;-145.66;100.00;59599.19;10496741;28;19928;-60
2022/06/13 08:04:00;;;;;;;;;;;;;;;-145.66;100.00;59599.19;10495743;28;19920;-61
2022/06/13 08:09:03;;;;;;;;;;;;;;;-145.66;100.00;59599.19;10496273;28;19932;-62
2022/06/13 08:14:07;;;;;;;;;;;;;;;-145.66;100.00;59599.19;10479393;23;20669;-69
2022/06/13 08:19:10;;;;;;;;;;;;;;;-145.66;100.00;59599.19;10437378;28;19928;-69
2022/06/13 08:24:12;;;;;;;;;;;;;;;-145.66;100.00;59599.19;10494073;28;19920;-69
2022/06/13 08:29:16;;;;;;;;;;;;;;;-145.66;100.00;59599.19;10477799;28;19931;-69
2022/06/13 08:34:18;;;;;;;;;;;;;;;-145.66;100.00;59599.19;10495299;28;20291;-69
2022/06/13 08:39:20;;;;;;;;;;;;;;;-145.66;100.00;59599.19;10495740;28;19936;-68
2022/06/13 08:44:38;;;;;;;;;;;;;;;-145.66;100.00;59599.19;10495124;28;19924;-67
2022/06/13 08:49:41;;;;;;;;;;;;;;;-145.66;100.00;59599.19;10495192;28;19929;-66
2022/06/13 08:54:46;;;;;;;;;;;;;;;-145.66;100.00;59599.19;10493711;28;19920;-67
2022/06/13 08:59:54;;;;;;;;;;;;;;;-145.66;100.00;59599.19;10493481;28;20387;-66
2022/06/13 09:05:14;;;;;;;;;;;;;;;-145.66;100.00;59599.19;10493285;28;20277;-67
2022/06/13 09:10:25;;;;;;;;;;;;;;;-145.66;100.00;59599.19;10493810;28;19921;-68
2022/06/13 09:15:31;;;;;;;;;;;;;;;-145.66;100.00;59599.19;10499160;28;20378;-68
2022/06/13 09:20:33;;;;;;;;;;;;;;;-145.66;100.00;59599.19;10500404;28;19927;-67
2022/06/13 09:25:39;;;;;;;;;;;;;;;-145.66;100.00;59599.19;10500738;28;19921;-67
2022/06/13 09:31:01;;;;;;;;;;;;;;;-145.66;100.00;59599.19;10498748;28;20306;-68
2022/06/13 09:36:10;;;;;;;;;;;;;;;-145.66;100.00;59599.19;10499633;28;19920;-66
2022/06/13 09:41:23;;;;;;;;;;;;;;;-145.66;100.00;59599.19;10499012;28;19924;-68
2022/06/13 09:46:48;;;;;;;;;;;;;;;-145.66;100.00;59599.19;10499959;28;19920;-67
2022/06/13 09:51:54;;;;;;;;;;;;;;;-145.66;100.00;59599.19;10491163;28;20271;-68
2022/06/13 09:57:16;;;;;;;;;;;;;;;-145.66;100.00;59599.19;10482435;28;20287;-67
2022/06/13 10:02:25;;;;;;;;;;;;;;;-145.66;100.00;59599.19;10455917;28;20387;-67
2022/06/13 10:07:27;;;;;;;;;;;;;;;-145.66;100.00;59599.19;10456342;28;20385;-66
2022/06/13 10:12:45;;;;;;;;;;;;;;;-145.66;100.00;59599.19;10457300;28;19921;-68
2022/06/13 10:18:12;;;;;;;;;;;;;;;-145.66;100.00;59599.19;10479401;28;20015;-68
2022/06/13 10:23:31;;;;;;;;;;;;;;;-145.66;100.00;59599.19;10441467;28;20291;-68
2022/06/13 10:28:39;;;;;;;;;;;;;;;-145.66;100.00;59599.19;10456630;28;20375;-67
2022/06/13 10:34:00;;;;;;;;;;;;;;;-145.66;100.00;59599.19;10488932;28;20370;-67
2022/06/13 10:39:06;;;;;;;;;;;;;;;-145.66;100.00;59599.19;10496925;28;19920;-67
2022/06/13 10:44:11;;;;;;;;;;;;;;;-145.66;100.00;59599.19;10450478;28;20395;-68
2022/06/13 10:49:15;;;;;;;;;;;;;;;-145.66;100.00;59599.19;10443010;28;19930;-68
2022/06/13 10:54:29;;;;;;;;;;;;;;;-145.66;100.00;59599.19;10444048;28;19932;-68
2022/06/13 10:59:33;;;;;;;;;;;;;;;-145.66;100.00;59599.19;10447870;28;20380;-68
2022/06/13 11:04:35;;;;;;;;;;;;;;;-145.66;100.00;59599.19;10461848;28;20477;-67
2022/06/13 11:09:48;;;;;;;;;;;;;;;-145.66;100.00;59599.19;10449579;28;19924;-68
2022/06/13 11:25:42;;;;;;;;;;;;;;;-145.66;100.00;59599.19;10455495;28;19947;-67
2022/06/13 11:30:46;;;;;;;;;;;;;;;-145.66;100.00;59599.19;10439336;28;19935;-68
2022/06/13 11:36:07;;;;;;;;;;;;;;;-145.66;100.00;59599.19;10457531;28;19970;-68
2022/06/13 11:41:13;;;;;;;;;;;;;;;-145.66;100.00;59599.19;10455691;28;20291;-69
2022/06/13 11:46:27;;;;;;;;;;;;;;;-145.66;100.00;59599.19;10456861;28;19925;-69
2022/06/13 11:51:38;;;;;;;;;;;;;;;-145.66;100.00;59599.19;10456148;28;19931;-69
2022/06/13 11:56:40;;;;;;;;;;;;;;;-145.66;100.00;59599.19;10455135;28;19952;-70
2022/06/13 12:01:43;;;;;;;;;;;;;;;-145.66;100.00;59599.19;10455206;28;20287;-69
2022/06/13 12:06:47;;;;;;;;;;;;;;;-145.66;100.00;59599.19;10454217;28;19925;-68
2022/06/13 12:11:53;;;;;;;;;;;;;;;-145.66;100.00;59599.19;10453757;28;19928;-69
2022/06/13 12:16:56;;;;;;;;;;;;;;;-145.66;100.00;59599.19;10453277;28;20300;-70
2022/06/13 12:22:10;;;;;;;;;;;;;;;-145.66;100.00;59599.19;10454404;28;20480;-69
2022/06/13 12:27:12;;;;;;;;;;;;;;;-145.66;100.00;59599.19;10436679;28;20021;-70
2022/06/13 12:32:22;;;;;;;;;;;;;;;-145.66;100.00;59599.19;10454208;28;19925;-70
2022/06/13 12:37:33;;;;;;;;;;;;;;;-145.66;100.00;59599.19;10454280;28;19925;-69
2022/06/13 12:42:41;;;;;;;;;;;;;;;-145.66;100.00;59599.19;10452691;28;19921;-70
2022/06/13 12:47:56;;;;;;;;;;;;;;;-145.66;100.00;59599.19;10454670;28;19924;-69
2022/06/13 12:53:01;;;;;;;;;;;;;;;-145.66;100.00;59599.19;10453179;28;20003;-69
2022/06/13 12:58:19;;;;;;;;;;;;;;;-145.66;100.00;59599.19;10452650;28;19928;-69
2022/06/13 13:03:57;;;;;;;;;;;;;;;-145.66;100.00;59599.19;10453346;28;19943;-70
2022/06/13 13:09:08;;;;;;;;;;;;;;;-145.66;100.00;59599.19;10354513;28;19936;-70
2022/06/13 13:14:29;;;;;;;;;;;;;;;-145.66;100.00;59599.19;10452166;28;19925;-70
2022/06/13 13:19:31;;;;;;;;;;;;;;;-145.66;100.00;59599.19;10462343;28;20387;-70
2022/06/13 13:24:53;;;;;;;;;;;;;;;-145.66;100.00;59599.19;10471141;28;19924;-70
2022/06/13 13:30:14;;;;;;;;;;;;;;;-145.66;100.00;59599.19;10442150;28;19920;-70
2022/06/13 13:35:16;;;;;;;;;;;;;;;-145.66;100.00;59599.19;10471148;28;19920;-69
2022/06/13 13:40:18;;;;;;;;;;;;;;;-145.66;100.00;59599.19;10457629;28;20356;-70
2022/06/13 13:45:39;;;;;;;;;;;;;;;-145.66;100.00;59599.19;10459210;28;19931;-70
2022/06/13 13:50:51;;;;;;;;;;;;;;;-145.66;100.00;59599.19;10478606;28;19925;-70
2022/06/13 13:56:01;;;;;;;;;;;;;;;-145.66;100.00;59599.19;10458140;28;20275;-70
2022/06/13 14:01:24;;;;;;;;;;;;;;;-145.66;100.00;59599.19;10456525;28;19928;-69
2022/06/13 14:06:33;;;;;;;;;;;;;;;-145.66;100.00;59599.19;10459191;28;19921;-69
2022/06/13 14:11:54;;;;;;;;;;;;;;;-145.66;100.00;59599.19;10458367;28;19927;-68
2022/06/13 14:16:56;;;;;;;;;;;;;;;-145.66;100.00;59599.19;10467173;28;19924;-69
2022/06/13 14:22:12;;;;;;;;;;;;;;;-145.66;100.00;59599.19;10466689;28;19928;-70
2022/06/13 14:27:14;;;;;;;;;;;;;;;-145.66;100.00;59599.19;10470088;28;19921;-68
2022/06/13 14:32:31;;;;;;;;;;;;;;;-145.66;100.00;59599.19;10456501;28;19920;-69
2022/06/13 14:37:43;;;;;;;;;;;;;;;-145.66;100.00;59599.19;10446868;28;20010;-69
2022/06/13 14:42:58;;;;;;;;;;;;;;;-145.66;100.00;59599.19;10450035;28;19990;-70
2022/06/13 14:48:14;;;;;;;;;;;;;;;-145.66;100.00;59599.19;10467008;28;19983;-69
2022/06/13 14:53:25;;;;;;;;;;;;;;;-145.66;100.00;59599.19;10494686;28;20300;-69
2022/06/13 15:04:04;;;;;;;;;;;;;;;-145.66;100.00;59599.19;10478489;28;19925;-70
2022/06/13 15:09:06;;;;;;;;;;;;;;;-145.66;100.00;59599.19;10457636;28;19924;-70
2022/06/13 15:14:10;;;;;;;;;;;;;;;-145.66;100.00;59599.19;10457116;28;19924;-66
2022/06/13 15:19:12;;;;;;;;;;;;;;;-145.66;100.00;59599.19;10469875;28;19929;-69
2022/06/13 15:24:16;;;;;;;;;;;;;;;-145.66;100.00;59599.19;10482968;28;19947;-66
2022/06/13 15:29:22;;;;;;;;;;;;;;;-145.66;100.00;59599.19;10458446;28;19924;-68
2022/06/13 15:34:28;;;;;;;;;;;;;;;-145.66;100.00;59599.19;10459120;28;19924;-67
2022/06/13 15:39:34;;;;;;;;;;;;;;;-145.66;100.00;59599.19;10477838;28;20275;-67
2022/06/13 15:44:38;;;;;;;;;;;;;;;-145.66;100.00;59599.19;10479351;28;19930;-68
2022/06/13 15:49:42;;;;;;;;;;;;;;;-145.66;100.00;59599.19;10495785;28;19928;-67
2022/06/13 15:54:50;;;;;;;;;;;;;;;-145.66;100.00;59599.19;10473380;28;19925;-68
2022/06/13 15:59:59;;;;;;;;;;;;;;;-145.66;100.00;59599.19;10467734;28;19924;-67
2022/06/13 16:05:02;;;;;;;;;;;;;;;-145.66;100.00;59599.19;10455968;28;19930;-67
2022/06/13 16:10:05;;;;;;;;;;;;;;;-145.66;100.00;59599.19;10453532;28;20398;-67
2022/06/13 16:15:07;;;;;;;;;;;;;;;-145.66;100.00;59599.19;10455172;28;19924;-68
2022/06/13 16:20:29;;;;;;;;;;;;;;;-145.66;100.00;59599.19;10454738;28;19975;-65
2022/06/13 16:25:31;;;;;;;;;;;;;;;-145.66;100.00;59599.19;10453498;28;19932;-65
2022/06/13 16:30:34;;;;;;;;;;;;;;;-145.66;100.00;59599.19;10454716;28;19925;-66
2022/06/13 16:35:40;;;;;;;;;;;;;;;-145.66;100.00;59599.19;10455551;28;19921;-66
2022/06/13 16:40:42;;;;;;;;;;;;;;;-145.66;100.00;59599.19;10471276;28;20378;-66
2022/06/13 16:45:46;;;;;;;;;;;;;;;-145.66;100.00;59599.19;10422922;28;19932;-66
2022/06/13 16:50:58;;;;;;;;;;;;;;;-145.66;100.00;59599.19;10456708;28;19921;-66
2022/06/13 16:56:01;;;;;;;;;;;;;;;-145.66;100.00;59599.19;10459431;28;19967;-67
2022/06/13 17:01:08;;;;;;;;;;;;;;;-145.66;100.00;59599.19;10460893;28;20276;-67
2022/06/13 17:06:25;;;;;;;;;;;;;;;-145.66;100.00;59599.19;10459076;28;19920;-67
2022/06/13 17:11:37;;;;;;;;;;;;;;;-145.66;100.00;59599.19;10460048;28;19920;-66
2022/06/13 17:16:41;;;;;;;;;;;;;;;-145.66;100.00;59599.19;10458037;28;19927;-67
2022/06/13 17:21:43;;;;;;;;;;;;;;;-145.66;100.00;59599.19;10491671;28;19920;-67
2022/06/13 17:32:07;;;;;;;;;;;;;;;-145.66;100.00;59599.19;10499656;28;20007;-67
2022/06/13 17:37:10;;;;;;;;;;;;;;;-145.66;100.00;59599.19;10469813;28;19927;-66
2022/06/13 17:42:19;;;;;;;;;;;;;;;;;;10557209;22;19925;-59
2022/06/13 17:47:22;;;;;;;;;;;;;;;;;;10451274;28;20011;-60
2022/06/13 17:52:25;;;;;;;;;;;;;;;;;;10451566;28;19931;-60
2022/06/13 17:57:27;;;;;;;;;;;;;;;;;;10450800;28;19928;-60
2022/06/13 18:02:29;;;;;;;;;;;;;;;;;;10455757;28;19925;-60
2022/06/13 18:07:32;;;;;;;;;;;;;;;;;;10451654;28;19939;-60
2022/06/13 18:12:34;;;;;;;;;;;;;;;;;;10450829;28;19932;-61
2022/06/13 18:17:37;;;;;;;;;;;;;;;;;;10451642;28;19925;-60
2022/06/13 18:22:39;;;;;;;;;;;;;;;;;;10449686;28;19925;-59
2022/06/13 18:27:41;;;;;;;;;;;;;;;;;;10449739;28;19925;-60
2022/06/13 18:32:43;;;;;;;;;;;;;;;;;;10451232;28;19932;-60
2022/06/13 18:37:45;;;;;;;;;;;;;;;;;;10483351;28;19932;-60
2022/06/13 18:42:48;;;;;;;;;;;;;;;;;;10447075;28;19929;-60
2022/06/13 18:47:50;;;;;;;;;;;;;;;;;;10454030;28;19925;-60
2022/06/13 18:52:52;;;;;;;;;;;;;;;;;;10428076;28;19932;-61
2022/06/13 18:57:55;;;;;;;;;;;;;;;;;;10437753;28;19932;-61
2022/06/13 19:02:57;;;;;;;;;;;;;;;;;;10421451;28;19929;-61
2022/06/13 19:07:59;;;;;;;;;;;;;;;;;;10421316;28;20005;-61
2022/06/13 19:13:01;;;;;;;;;;;;;;;;;;10422983;28;19925;-61
2022/06/13 19:18:04;;;;;;;;;;;;;;;;;;10456543;28;20312;-61
2022/06/13 19:23:06;;;;;;;;;;;;;;;;;;10420762;28;19932;-61
2022/06/13 19:28:08;;;;;;;;;;;;;;;;;;10422170;28;19929;-61
2022/06/13 19:33:10;;;;;;;;;;;;;;;;;;10430733;28;19925;-61
2022/06/13 19:38:12;;;;;;;;;;;;;;;;;;10419490;28;19983;-61
2022/06/13 19:43:14;;;;;;;;;;;;;;;;;;10417781;28;19925;-61
2022/06/13 19:48:16;;;;;;;;;;;;;;;;;;10425349;28;19925;-61
2022/06/13 19:53:18;;;;;;;;;;;;;;;;;;10422562;28;20265;-61
2022/06/13 19:58:22;;;;;;;;;;;;;;;;;;10420016;28;19932;-61
2022/06/13 20:03:28;;;;;;;;;;;;;;;;;;10417519;28;19968;-60
2022/06/13 20:08:30;;;;;;;;;;;;;;;;;;10421572;28;19992;-61
2022/06/13 20:13:33;;;;;;;;;;;;;;;;;;10418483;28;20391;-61
2022/06/13 20:18:35;;;;;;;;;;;;;;;;;;10423810;28;19925;-61
2022/06/13 20:23:42;;;;;;;;;;;;;;;;;;10459111;28;19932;-61
2022/06/13 20:28:44;;;;;;;;;;;;;;;;;;10458780;28;19931;-60
2022/06/13 20:33:46;;;;;;;;;;;;;;;;;;10458980;28;19925;-61
2022/06/13 20:38:48;;;;;;;;;;;;;;;;;;10419583;28;19936;-61
2022/06/13 20:43:51;;;;;;;;;;;;;;;;;;10428609;28;19925;-61
2022/06/13 20:48:53;;;;;;;;;;;;;;;;;;10417494;28;19928;-61
2022/06/13 20:53:55;;;;;;;;;;;;;;;;;;10416292;28;19925;-61
2022/06/13 20:58:57;;;;;;;;;;;;;;;;;;10417915;28;19931;-61
2022/06/13 21:03:59;;;;;;;;;;;;;;;;;;10416918;28;19925;-61
2022/06/13 21:14:22;;;;;;;;;;;;;;;;;;10437850;28;19925;-61
2022/06/13 21:19:24;;;;;;;;;;;;;;;;;;10444304;28;19925;-61
2022/06/13 21:24:29;;;;;;;;;;;;;;;;;;10415698;28;20368;-61
2022/06/13 21:29:31;;;;;;;;;;;;;;;;;;10416172;28;19932;-61
2022/06/13 21:34:33;;;;;;;;;;;;;;;;;;10418143;28;19936;-61
2022/06/13 21:39:35;;;;;;;;;;;;;;;;;;10416233;28;19931;-61
2022/06/13 21:44:37;;;;;;;;;;;;;;;;;;10414903;28;19925;-60
2022/06/13 21:49:39;;;;;;;;;;;;;;;;;;10414551;28;20287;-60
2022/06/13 21:54:41;;;;;;;;;;;;;;;;;;10415027;28;20295;-60
2022/06/13 21:59:44;;;;;;;;;;;;;;;;;;10416694;28;19932;-61
2022/06/13 22:04:46;;;;;;;;;;;;;;;;;;10414794;28;19925;-60
2022/06/13 22:09:48;;;;;;;;;;;;;;;;;;10416874;28;19929;-60
2022/06/13 22:14:50;;;;;;;;;;;;;;;;;;10456389;28;19929;-60
2022/06/13 22:19:52;;;;;;;;;;;;;;;;;;10433188;28;20287;-60
2022/06/13 22:24:54;;;;;;;;;;;;;;;;;;10456762;28;20367;-60
2022/06/13 22:29:56;;;;;;;;;;;;;;;;;;10464081;28;19924;-60
2022/06/13 22:34:58;;;;;;;;;;;;;;;;;;10462311;28;19947;-60
2022/06/13 22:40:00;;;;;;;;;;;;;;;;;;10445435;28;19934;-60
2022/06/13 22:45:02;;;;;;;;;;;;;;;;;;10421363;28;20276;-60
2022/06/13 22:50:04;;;;;;;;;;;;;;;;;;10421394;28;19980;-60
2022/06/13 22:55:07;;;;;;;;;;;;;;;;;;10421867;28;19975;-60
2022/06/13 23:00:09;;;;;;;;;;;;;;;;;;10422090;28;20304;-60
2022/06/13 23:05:11;;;;;;;;;;;;;;;;;;10420820;28;19925;-60
2022/06/13 23:10:13;;;;;;;;;;;;;;;;;;10419544;28;19925;-60
2022/06/13 23:15:16;;;;;;;;;;;;;;;;;;10421085;28;19931;-60
2022/06/13 23:20:18;;;;;;;;;;;;;;;;;;10441279;28;19925;-60
2022/06/13 23:25:20;;;;;;;;;;;;;;;;;;10461359;28;20287;-60
2022/06/13 23:30:22;;;;;;;;;;;;;;;;;;10460348;28;19924;-60
2022/06/13 23:35:24;;;;;;;;;;;;;;;;;;10454634;28;19955;-60
2022/06/13 23:40:26;;;;;;;;;;;;;;;;;;10441417;28;19932;-60
2022/06/13 23:45:28;;;;;;;;;;;;;;;;;;10456763;28;19929;-60
2022/06/13 23:50:36;;;;;;;;;;;;;;;;;;10437387;28;19925;-60
2022/06/13 23:55:38;;;;;;;;;;;;;;;;;;10440068;28;19982;-60
